Kakushu Maru — JG5688 — position and weather

sailwx.info

Track history (hours):
 
Tides and Currents Weather Stations Pressure Air Temp Water Temp Dewpoint Dewpoint Depression Visibility Wind Speed Wind Dir Waves Ship Positions

Kakushu Maru

Last reported at 2015-Feb-01 02:33 UTC. Time now 2015-Feb-01 10:10 UTC.
Position N 34°09' E 135°10'.

Length 105 m; draft 6 m.

Type: Tanker. MMSI: 431101016.

Date/timePositionNaut miles runAvg speedWind from/ knotsBaromVisibWave heightAir tempDewpointWater temp
2015-Feb-01 02:33N 34°09' E 135°10'1 1.3
2015-Feb-01 01:31N 34°10' E 135°09'0 0.0
2015-Feb-01 00:31N 34°10' E 135°09'0 0.0
2015-Jan-31 23:31N 34°10' E 135°09'0 0.0
2015-Jan-31 22:31N 34°10' E 135°09'0 0.0
2015-Jan-31 21:31N 34°10' E 135°09'0 0.0
2015-Jan-31 20:31N 34°10' E 135°09'0 0.0
2015-Jan-31 19:28N 34°10' E 135°09'0 0.0
2015-Jan-31 18:31N 34°10' E 135°09'0 0.0
2015-Jan-31 17:31N 34°10' E 135°09'0 0.1
2015-Jan-31 16:31N 34°10' E 135°09'5 5.7
2015-Jan-31 15:34N 34°12' E 135°03'1413.6
2015-Jan-31 14:33N 34°26' E 135°01'1111.0
2015-Jan-31 13:33N 34°36' E 134°57'210 7.2
2015-Jan-30 08:19N 34°02' E 130°46'2413.3
2015-Jan-30 06:30N 33°51' E 130°21'1212.3
2015-Jan-30 05:33N 33°39' E 130°18'5 5.3
2015-Jan-30 04:33N 33°36' E 130°23'0 0.0
2015-Jan-30 03:33N 33°36' E 130°23'0 0.0
2015-Jan-30 02:33N 33°36' E 130°23'0 0.0
2015-Jan-30 01:33N 33°36' E 130°23'0 0.0
2015-Jan-30 00:33N 33°36' E 130°23'0 0.5
2015-Jan-29 23:33N 33°37' E 130°23'8 8.4
2015-Jan-29 22:32N 33°43' E 130°16'1211.9
2015-Jan-29 21:33N 33°53' E 130°22'18 9.0
2015-Jan-29 19:30N 34°02' E 130°41'215 6.9
2015-Jan-28 12:31N 34°37' E 134°58'1111.8
2015-Jan-28 11:33N 34°34' E 135°11'11 1.3
2015-Jan-28 02:33N 34°32' E 135°24'5 4.9
2015-Jan-28 01:32N 34°33' E 135°18'0 0.0
2015-Jan-28 00:32N 34°33' E 135°18'0 0.0
2015-Jan-27 23:32N 34°33' E 135°18'0 0.0
2015-Jan-27 22:32N 34°33' E 135°18'5 5.2
2015-Jan-27 21:33N 34°34' E 135°12'1312.9
2015-Jan-27 20:33N 34°36' E 134°57'  
Track history (hours):
 
Tides and Currents Weather Stations Pressure Air Temp Water Temp Dewpoint Dewpoint Depression Visibility Wind Speed Wind Dir Waves Ship Positions

Kakushu Maru

Last reported at 2015-Feb-01 02:33 UTC. Time now 2015-Feb-01 10:10 UTC.
Position N 34°09' E 135°10'.

Length 105 m; draft 6 m.

Type: Tanker. MMSI: 431101016.

Date/timePositionNaut miles runAvg speedWind from/ knotsBaromVisibWave heightAir tempDewpointWater temp
2015-Feb-01 02:33N 34°09' E 135°10'1 1.3
2015-Feb-01 01:31N 34°10' E 135°09'0 0.0
2015-Feb-01 00:31N 34°10' E 135°09'0 0.0
2015-Jan-31 23:31N 34°10' E 135°09'0 0.0
2015-Jan-31 22:31N 34°10' E 135°09'0 0.0
2015-Jan-31 21:31N 34°10' E 135°09'0 0.0
2015-Jan-31 20:31N 34°10' E 135°09'0 0.0
2015-Jan-31 19:28N 34°10' E 135°09'0 0.0
2015-Jan-31 18:31N 34°10' E 135°09'0 0.0
2015-Jan-31 17:31N 34°10' E 135°09'0 0.1
2015-Jan-31 16:31N 34°10' E 135°09'5 5.7
2015-Jan-31 15:34N 34°12' E 135°03'1413.6
2015-Jan-31 14:33N 34°26' E 135°01'1111.0
2015-Jan-31 13:33N 34°36' E 134°57'210 7.2
2015-Jan-30 08:19N 34°02' E 130°46'2413.3
2015-Jan-30 06:30N 33°51' E 130°21'1212.3
2015-Jan-30 05:33N 33°39' E 130°18'5 5.3
2015-Jan-30 04:33N 33°36' E 130°23'0 0.0
2015-Jan-30 03:33N 33°36' E 130°23'0 0.0
2015-Jan-30 02:33N 33°36' E 130°23'0 0.0
2015-Jan-30 01:33N 33°36' E 130°23'0 0.0
2015-Jan-30 00:33N 33°36' E 130°23'0 0.5
2015-Jan-29 23:33N 33°37' E 130°23'8 8.4
2015-Jan-29 22:32N 33°43' E 130°16'1211.9
2015-Jan-29 21:33N 33°53' E 130°22'18 9.0
2015-Jan-29 19:30N 34°02' E 130°41'215 6.9
2015-Jan-28 12:31N 34°37' E 134°58'1111.8
2015-Jan-28 11:33N 34°34' E 135°11'11 1.3
2015-Jan-28 02:33N 34°32' E 135°24'5 4.9
2015-Jan-28 01:32N 34°33' E 135°18'0 0.0
2015-Jan-28 00:32N 34°33' E 135°18'0 0.0
2015-Jan-27 23:32N 34°33' E 135°18'0 0.0
2015-Jan-27 22:32N 34°33' E 135°18'5 5.2
2015-Jan-27 21:33N 34°34' E 135°12'1312.9
2015-Jan-27 20:33N 34°36' E 134°57'  

Dump ship's entire track history